Time;durP1;ratioP1;P1;durP2;ratioP2;P2;SDS_P1;SDS_P2;PMS_P1;PMS_P2;Temp;Humidity;BMP_temperature;BMP_pressure;BME280_temperature;BME280_humidity;BME280_pressure;Samples;Min_cycle;Max_cycle;Signal;HPM_P1;HPM_P2
2022/02/17 00:00:34;;;;;;;101.60;44.10;;;;;;;;;;5042183;28;20504;-82
2022/02/17 00:03:02;;;;;;;108.33;44.40;;;;;;;;;;5042799;28;20755;-82
2022/02/17 00:05:30;;;;;;;119.30;46.33;;;;;;;;;;5033229;28;20405;-81
2022/02/17 00:07:59;;;;;;;108.70;45.35;;;;;;;;;;5030531;28;20772;-82
2022/02/17 00:10:29;;;;;;;115.03;46.38;;;;;;;;;;5030643;28;20412;-82
2022/02/17 00:12:58;;;;;;;110.20;46.42;;;;;;;;;;5030389;28;20409;-82
2022/02/17 00:15:26;;;;;;;107.53;45.95;;;;;;;;;;5030521;28;20408;-81
2022/02/17 00:17:54;;;;;;;110.28;46.47;;;;;;;;;;5030065;28;20457;-80
2022/02/17 00:20:21;;;;;;;112.37;45.87;;;;;;;;;;5032478;28;20481;-83
2022/02/17 00:22:49;;;;;;;107.85;44.75;;;;;;;;;;5030088;28;20488;-80
2022/02/17 00:25:17;;;;;;;113.72;46.15;;;;;;;;;;5032893;28;21045;-83
2022/02/17 00:27:45;;;;;;;115.25;47.67;;;;;;;;;;5039005;28;20477;-82
2022/02/17 00:30:12;;;;;;;114.07;47.17;;;;;;;;;;5041893;28;20407;-82
2022/02/17 00:32:40;;;;;;;118.27;47.17;;;;;;;;;;5029619;28;20395;-82
2022/02/17 00:35:08;;;;;;;120.30;47.13;;;;;;;;;;5029632;28;20840;-83
2022/02/17 00:37:35;;;;;;;121.90;47.72;;;;;;;;;;5029184;28;20414;-83
2022/02/17 00:40:02;;;;;;;122.00;47.88;;;;;;;;;;5033716;28;20817;-82
2022/02/17 00:42:30;;;;;;;119.30;48.15;;;;;;;;;;5030866;28;20463;-82
2022/02/17 00:44:57;;;;;;;118.55;49.97;;;;;;;;;;5031688;28;20907;-82
2022/02/17 00:47:24;;;;;;;112.15;47.85;;;;;;;;;;5029294;28;20787;-82
2022/02/17 00:49:51;;;;;;;131.13;48.05;;;;;;;;;;5029054;28;20417;-83
2022/02/17 00:52:17;;;;;;;122.33;48.23;;;;;;;;;;5029109;28;20476;-82
2022/02/17 00:54:44;;;;;;;121.97;47.83;;;;;;;;;;5039570;28;20434;-83
2022/02/17 00:57:11;;;;;;;125.43;48.70;;;;;;;;;;5031749;28;20409;-82
2022/02/17 00:59:40;;;;;;;126.90;49.22;;;;;;;;;;5028578;28;20404;-83
2022/02/17 01:02:07;;;;;;;122.95;47.78;;;;;;;;;;5029217;28;20406;-82
2022/02/17 01:04:34;;;;;;;124.05;48.45;;;;;;;;;;5028183;28;20401;-82
2022/02/17 01:07:00;;;;;;;124.07;47.85;;;;;;;;;;5028949;28;20401;-82
2022/02/17 01:09:27;;;;;;;127.55;49.80;;;;;;;;;;5028813;28;20436;-82
2022/02/17 01:11:54;;;;;;;126.82;49.75;;;;;;;;;;5028322;28;20458;-83
2022/02/17 01:14:21;;;;;;;131.50;50.20;;;;;;;;;;5028323;28;20413;-83
2022/02/17 01:16:49;;;;;;;122.20;49.00;;;;;;;;;;5028263;28;20501;-83
2022/02/17 01:19:16;;;;;;;123.20;48.53;;;;;;;;;;5039138;28;20400;-82
2022/02/17 01:21:44;;;;;;;130.35;50.45;;;;;;;;;;5041873;28;20489;-83
2022/02/17 01:24:11;;;;;;;128.88;49.63;;;;;;;;;;5042403;28;20487;-82
2022/02/17 01:26:38;;;;;;;124.55;48.65;;;;;;;;;;5041106;28;20876;-83
2022/02/17 01:29:04;;;;;;;117.70;49.05;;;;;;;;;;5041451;28;20550;-83
2022/02/17 01:31:31;;;;;;;121.18;49.58;;;;;;;;;;5032428;28;20400;-83
2022/02/17 01:33:59;;;;;;;118.60;48.00;;;;;;;;;;5040106;28;20453;-82
2022/02/17 01:36:26;;;;;;;113.95;48.03;;;;;;;;;;5039916;28;20407;-82
2022/02/17 01:38:53;;;;;;;112.88;46.25;;;;;;;;;;5040261;28;20488;-82
2022/02/17 01:41:20;;;;;;;116.68;48.10;;;;;;;;;;5040544;28;20833;-82
2022/02/17 01:43:49;;;;;;;110.53;48.33;;;;;;;;;;5041726;28;20403;-83
2022/02/17 01:46:17;;;;;;;105.97;46.63;;;;;;;;;;5038968;28;20464;-83
2022/02/17 01:48:44;;;;;;;104.82;46.78;;;;;;;;;;5038164;28;20742;-83
2022/02/17 01:51:12;;;;;;;110.47;47.80;;;;;;;;;;5041123;28;20481;-83
2022/02/17 01:53:39;;;;;;;103.72;46.05;;;;;;;;;;5041526;28;20455;-83
2022/02/17 01:56:06;;;;;;;103.30;46.83;;;;;;;;;;5041365;28;20424;-83
2022/02/17 01:58:34;;;;;;;98.95;46.25;;;;;;;;;;5048301;28;21281;-82
2022/02/17 02:01:03;;;;;;;101.82;45.20;;;;;;;;;;5046114;28;20514;-82
2022/02/17 02:03:30;;;;;;;103.27;47.30;;;;;;;;;;5041190;28;20419;-82
2022/02/17 02:05:57;;;;;;;99.80;46.10;;;;;;;;;;5041206;28;20396;-82
2022/02/17 02:08:25;;;;;;;101.23;46.97;;;;;;;;;;5042431;28;20395;-82
2022/02/17 02:10:52;;;;;;;97.78;44.22;;;;;;;;;;5041922;28;20403;-83
2022/02/17 02:13:19;;;;;;;94.13;44.13;;;;;;;;;;5042480;28;20411;-83
2022/02/17 02:15:49;;;;;;;93.18;43.85;;;;;;;;;;5039215;28;20637;-83
2022/02/17 02:18:15;;;;;;;96.53;44.22;;;;;;;;;;5029280;28;20456;-82
2022/02/17 02:20:52;;;;;;;92.93;44.75;;;;;;;;;;5032454;28;20421;-83
2022/02/17 02:23:19;;;;;;;93.75;43.17;;;;;;;;;;5039598;28;20814;-82
2022/02/17 02:25:48;;;;;;;88.47;42.80;;;;;;;;;;5038803;28;20482;-83
2022/02/17 02:28:20;;;;;;;93.15;43.53;;;;;;;;;;5039309;28;20404;-82
2022/02/17 02:30:47;;;;;;;91.93;43.17;;;;;;;;;;5039219;28;20910;-82
2022/02/17 02:33:14;;;;;;;94.00;44.38;;;;;;;;;;5042751;28;20404;-80
2022/02/17 02:35:41;;;;;;;95.57;43.13;;;;;;;;;;5042054;28;20411;-83
2022/02/17 02:38:10;;;;;;;97.10;44.65;;;;;;;;;;5042322;28;20417;-83
2022/02/17 02:40:37;;;;;;;105.10;44.55;;;;;;;;;;5042025;28;20415;-83
2022/02/17 02:43:04;;;;;;;96.45;44.10;;;;;;;;;;5042625;28;20403;-83
2022/02/17 02:45:32;;;;;;;99.25;44.33;;;;;;;;;;5026644;28;20409;-83
2022/02/17 02:48:03;;;;;;;100.03;43.93;;;;;;;;;;5025179;28;20468;-83
2022/02/17 02:50:30;;;;;;;101.00;43.75;;;;;;;;;;5032453;28;20876;-83
2022/02/17 02:52:57;;;;;;;103.18;45.53;;;;;;;;;;5025158;28;20455;-83
2022/02/17 02:55:25;;;;;;;96.57;42.92;;;;;;;;;;5025091;28;20459;-83
2022/02/17 02:57:52;;;;;;;98.28;43.08;;;;;;;;;;5024639;28;20409;-82
2022/02/17 03:00:19;;;;;;;103.22;43.80;;;;;;;;;;5025386;28;20447;-82
2022/02/17 03:02:46;;;;;;;97.85;43.78;;;;;;;;;;5038544;28;20416;-82
2022/02/17 03:05:13;;;;;;;97.65;44.00;;;;;;;;;;5039600;28;20396;-83
2022/02/17 03:07:40;;;;;;;102.18;43.28;;;;;;;;;;5037110;28;20397;-83
2022/02/17 03:10:07;;;;;;;102.00;44.28;;;;;;;;;;5039177;28;20397;-82
2022/02/17 03:12:36;;;;;;;102.38;44.75;;;;;;;;;;5037807;28;21069;-82
2022/02/17 03:15:03;;;;;;;110.70;45.38;;;;;;;;;;5038364;28;20750;-82
2022/02/17 03:17:29;;;;;;;103.00;44.75;;;;;;;;;;5038248;28;20395;-82
2022/02/17 03:19:56;;;;;;;112.20;44.13;;;;;;;;;;5037086;28;20405;-82
2022/02/17 03:22:24;;;;;;;117.13;45.63;;;;;;;;;;5039313;28;20435;-82
2022/02/17 03:24:51;;;;;;;112.13;45.13;;;;;;;;;;5036372;28;20463;-82
2022/02/17 03:27:17;;;;;;;105.18;43.08;;;;;;;;;;5039605;28;20410;-82
2022/02/17 03:29:46;;;;;;;91.75;40.42;;;;;;;;;;5039556;28;20404;-82
2022/02/17 03:32:12;;;;;;;99.50;39.83;;;;;;;;;;5036399;28;20773;-82
2022/02/17 03:34:39;;;;;;;93.88;39.60;;;;;;;;;;5038803;28;21395;-82
2022/02/17 03:37:06;;;;;;;103.13;41.33;;;;;;;;;;5037347;28;20407;-82
2022/02/17 03:39:33;;;;;;;109.25;41.63;;;;;;;;;;5041121;28;20458;-82
2022/02/17 03:42:00;;;;;;;111.25;42.17;;;;;;;;;;5039849;28;20475;-82
2022/02/17 03:44:27;;;;;;;107.30;41.28;;;;;;;;;;5039404;28;20945;-82
2022/02/17 03:46:56;;;;;;;108.50;40.50;;;;;;;;;;5038754;28;20409;-82
2022/02/17 03:49:23;;;;;;;105.63;41.30;;;;;;;;;;5040403;28;20934;-82
2022/02/17 03:51:50;;;;;;;112.05;40.67;;;;;;;;;;5035913;28;20520;-82
2022/02/17 03:54:17;;;;;;;107.28;40.63;;;;;;;;;;5039590;28;20395;-81
2022/02/17 03:56:44;;;;;;;112.65;42.28;;;;;;;;;;5038893;28;20817;-82
2022/02/17 03:59:10;;;;;;;104.93;40.27;;;;;;;;;;5039302;28;20407;-82
2022/02/17 04:01:38;;;;;;;100.63;39.97;;;;;;;;;;5036506;28;20446;-82
2022/02/17 04:04:09;;;;;;;108.90;41.35;;;;;;;;;;5038007;28;20402;-82
2022/02/17 04:06:36;;;;;;;92.60;38.53;;;;;;;;;;5036988;28;20404;-82
2022/02/17 04:09:04;;;;;;;94.50;37.17;;;;;;;;;;5039812;28;20399;-82
2022/02/17 04:11:31;;;;;;;98.90;38.20;;;;;;;;;;5036991;28;20455;-82
2022/02/17 04:13:58;;;;;;;96.78;38.97;;;;;;;;;;5037047;28;20461;-82
2022/02/17 04:16:25;;;;;;;98.95;38.80;;;;;;;;;;5040059;28;20403;-82
2022/02/17 04:18:52;;;;;;;92.65;38.67;;;;;;;;;;5035506;28;20398;-82
2022/02/17 04:21:22;;;;;;;92.90;37.92;;;;;;;;;;5038783;28;20890;-83
2022/02/17 04:23:49;;;;;;;94.32;38.78;;;;;;;;;;5039425;28;20408;-82
2022/02/17 04:26:17;;;;;;;96.07;37.15;;;;;;;;;;5038878;28;20645;-83
2022/02/17 04:28:45;;;;;;;98.07;37.90;;;;;;;;;;5035761;28;20402;-82
2022/02/17 04:31:12;;;;;;;97.68;38.13;;;;;;;;;;5038543;28;20449;-82
2022/02/17 04:33:40;;;;;;;96.28;38.33;;;;;;;;;;5035736;28;20395;-82
2022/02/17 04:36:07;;;;;;;94.20;37.80;;;;;;;;;;5037788;28;20476;-82
2022/02/17 04:38:36;;;;;;;95.68;38.28;;;;;;;;;;5036350;28;20407;-82
2022/02/17 04:43:47;;;;;;;89.07;38.47;;;;;;;;;;5035641;28;20412;-83
2022/02/17 04:46:14;;;;;;;90.00;37.13;;;;;;;;;;5038307;28;20408;-82
2022/02/17 04:48:41;;;;;;;95.95;38.33;;;;;;;;;;5037278;28;20888;-82
2022/02/17 04:51:07;;;;;;;96.30;37.83;;;;;;;;;;5037389;28;20868;-81
2022/02/17 04:53:36;;;;;;;95.10;37.97;;;;;;;;;;5039390;28;20396;-82
2022/02/17 04:56:04;;;;;;;93.28;39.10;;;;;;;;;;5043796;28;20596;-82
2022/02/17 04:58:31;;;;;;;90.32;38.58;;;;;;;;;;5037609;28;20465;-82
2022/02/17 05:00:57;;;;;;;94.07;39.57;;;;;;;;;;5035724;28;20547;-82
2022/02/17 05:03:24;;;;;;;96.30;38.65;;;;;;;;;;5035745;28;20482;-83
2022/02/17 05:05:52;;;;;;;94.57;37.88;;;;;;;;;;5041578;28;20430;-82
2022/02/17 05:08:20;;;;;;;94.40;37.55;;;;;;;;;;5040635;28;20479;-82
2022/02/17 05:10:48;;;;;;;98.65;38.53;;;;;;;;;;5033280;28;20443;-82
2022/02/17 05:13:16;;;;;;;93.25;37.85;;;;;;;;;;5038990;28;20521;-82
2022/02/17 05:15:43;;;;;;;95.55;39.15;;;;;;;;;;5035957;28;20406;-82
2022/02/17 05:18:10;;;;;;;91.93;37.90;;;;;;;;;;5041845;28;21108;-82
2022/02/17 05:20:37;;;;;;;103.32;39.58;;;;;;;;;;5040635;28;20421;-83
2022/02/17 05:23:04;;;;;;;98.60;38.67;;;;;;;;;;5029327;28;20493;-82
2022/02/17 05:25:31;;;;;;;99.90;39.17;;;;;;;;;;5028781;28;20401;-82
2022/02/17 05:28:00;;;;;;;99.78;39.53;;;;;;;;;;5029951;28;20456;-82
2022/02/17 05:30:27;;;;;;;106.80;38.75;;;;;;;;;;5029805;28;20405;-82
2022/02/17 05:32:54;;;;;;;105.57;40.20;;;;;;;;;;5031888;28;20405;-82
2022/02/17 05:35:21;;;;;;;93.20;38.47;;;;;;;;;;5029053;28;20947;-82
2022/02/17 05:37:47;;;;;;;98.05;38.42;;;;;;;;;;5031550;28;20395;-83
2022/02/17 05:40:14;;;;;;;101.70;38.10;;;;;;;;;;5032014;28;20448;-82
2022/02/17 05:42:41;;;;;;;100.45;37.38;;;;;;;;;;5034318;28;20488;-82
2022/02/17 05:45:10;;;;;;;94.95;36.28;;;;;;;;;;5040455;28;20397;-82
2022/02/17 05:47:37;;;;;;;102.70;39.17;;;;;;;;;;5035633;28;20404;-82
2022/02/17 05:50:04;;;;;;;98.68;38.42;;;;;;;;;;5028424;28;20422;-82
2022/02/17 05:52:31;;;;;;;95.00;37.97;;;;;;;;;;5041070;28;20404;-82
2022/02/17 05:54:58;;;;;;;101.43;38.03;;;;;;;;;;5043016;28;20415;-82
2022/02/17 05:57:25;;;;;;;110.50;39.38;;;;;;;;;;5042522;28;20453;-82
2022/02/17 05:59:51;;;;;;;100.45;37.08;;;;;;;;;;5040267;28;20411;-82
2022/02/17 06:02:19;;;;;;;95.13;36.03;;;;;;;;;;5040791;28;20424;-82
2022/02/17 06:04:47;;;;;;;96.88;36.97;;;;;;;;;;5037676;28;20537;-82
2022/02/17 06:07:14;;;;;;;90.05;36.13;;;;;;;;;;5041591;28;20461;-82
2022/02/17 06:09:41;;;;;;;92.65;35.72;;;;;;;;;;5034544;28;20404;-82
2022/02/17 06:12:09;;;;;;;91.28;36.10;;;;;;;;;;5039328;28;20400;-82
2022/02/17 06:14:36;;;;;;;97.95;36.15;;;;;;;;;;5042430;28;20411;-82
2022/02/17 06:17:04;;;;;;;94.65;36.28;;;;;;;;;;5041167;28;20396;-82
2022/02/17 06:19:32;;;;;;;94.83;37.33;;;;;;;;;;5034465;28;20477;-82
2022/02/17 06:21:59;;;;;;;99.95;37.53;;;;;;;;;;5037523;28;20419;-82
2022/02/17 06:24:26;;;;;;;97.13;36.60;;;;;;;;;;5038831;28;20881;-82
2022/02/17 06:26:53;;;;;;;99.03;36.97;;;;;;;;;;5039797;28;21048;-82
2022/02/17 06:29:20;;;;;;;87.93;36.53;;;;;;;;;;5038581;28;20415;-82
2022/02/17 06:31:46;;;;;;;86.47;35.85;;;;;;;;;;5039073;28;20408;-83
2022/02/17 06:34:13;;;;;;;87.93;36.90;;;;;;;;;;5038843;28;20410;-82
2022/02/17 06:36:44;;;;;;;82.65;35.10;;;;;;;;;;5039012;28;20407;-85
2022/02/17 06:39:11;;;;;;;87.53;36.28;;;;;;;;;;5041328;28;20411;-82
2022/02/17 06:41:38;;;;;;;86.68;33.78;;;;;;;;;;5040586;28;20395;-85
2022/02/17 06:44:06;;;;;;;77.65;34.78;;;;;;;;;;5040952;28;20752;-82
2022/02/17 06:46:34;;;;;;;79.07;33.42;;;;;;;;;;5040155;28;20396;-82
2022/02/17 06:49:03;;;;;;;83.28;34.35;;;;;;;;;;5039453;28;20422;-82
2022/02/17 06:51:29;;;;;;;81.53;33.65;;;;;;;;;;5039664;28;20473;-82
2022/02/17 06:53:58;;;;;;;82.73;33.40;;;;;;;;;;5038870;28;20732;-81
2022/02/17 06:56:26;;;;;;;81.47;34.35;;;;;;;;;;5038956;28;20443;-81
2022/02/17 06:58:53;;;;;;;78.72;33.55;;;;;;;;;;5041373;28;20407;-81
2022/02/17 07:01:23;;;;;;;85.13;35.73;;;;;;;;;;5040722;28;20456;-82
2022/02/17 07:03:50;;;;;;;81.03;34.50;;;;;;;;;;5037040;28;20429;-81
2022/02/17 07:06:17;;;;;;;85.35;34.63;;;;;;;;;;5038001;28;20399;-82
2022/02/17 07:08:44;;;;;;;85.43;33.53;;;;;;;;;;5027889;28;20471;-82
2022/02/17 07:11:12;;;;;;;88.60;34.92;;;;;;;;;;5025157;28;20409;-82
2022/02/17 07:13:39;;;;;;;85.45;33.63;;;;;;;;;;5024457;28;20916;-81
2022/02/17 07:16:06;;;;;;;88.63;33.92;;;;;;;;;;5027790;28;20458;-81
2022/02/17 07:18:33;;;;;;;89.63;34.22;;;;;;;;;;5039465;28;20402;-81
2022/02/17 07:21:00;;;;;;;85.00;32.92;;;;;;;;;;5039348;28;20870;-82
2022/02/17 07:23:27;;;;;;;98.60;36.03;;;;;;;;;;5041549;28;20473;-81
2022/02/17 07:25:55;;;;;;;93.82;34.67;;;;;;;;;;5040807;28;20875;-81
2022/02/17 07:28:25;;;;;;;90.40;34.35;;;;;;;;;;5041390;28;20404;-82
2022/02/17 07:30:52;;;;;;;92.40;35.20;;;;;;;;;;5040589;28;20407;-81
2022/02/17 07:33:19;;;;;;;93.38;34.65;;;;;;;;;;5041425;28;20404;-82
2022/02/17 07:35:46;;;;;;;81.90;33.90;;;;;;;;;;5027531;28;20495;-82
2022/02/17 07:38:13;;;;;;;90.47;34.33;;;;;;;;;;5037080;28;20438;-82
2022/02/17 07:40:41;;;;;;;85.72;32.67;;;;;;;;;;5041180;28;20405;-81
2022/02/17 07:43:09;;;;;;;83.57;33.75;;;;;;;;;;5042228;28;20497;-81
2022/02/17 07:45:37;;;;;;;82.55;32.53;;;;;;;;;;5041257;28;20404;-81
2022/02/17 07:48:05;;;;;;;81.65;33.22;;;;;;;;;;5037479;28;20440;-82
2022/02/17 07:50:33;;;;;;;85.40;33.70;;;;;;;;;;5026683;28;20405;-82
2022/02/17 07:53:01;;;;;;;87.97;33.13;;;;;;;;;;5041601;28;20410;-82
2022/02/17 07:55:28;;;;;;;83.95;33.53;;;;;;;;;;5044572;28;20666;-83
2022/02/17 07:57:57;;;;;;;78.35;32.40;;;;;;;;;;5044578;28;20417;-83
2022/02/17 08:00:23;;;;;;;83.83;33.10;;;;;;;;;;5044887;28;20403;-83
2022/02/17 08:02:52;;;;;;;86.93;33.90;;;;;;;;;;5020973;28;20817;-76
2022/02/17 08:05:18;;;;;;;80.23;32.80;;;;;;;;;;5043585;28;20434;-76
2022/02/17 08:07:45;;;;;;;90.80;33.72;;;;;;;;;;5025993;28;20804;-76
2022/02/17 08:10:12;;;;;;;93.72;33.75;;;;;;;;;;5025856;28;20938;-76
2022/02/17 08:12:43;;;;;;;84.63;33.28;;;;;;;;;;5025745;28;20401;-76
2022/02/17 08:15:11;;;;;;;97.30;35.25;;;;;;;;;;5025251;28;20804;-76
2022/02/17 08:17:38;;;;;;;91.13;33.58;;;;;;;;;;5025317;28;20412;-76
2022/02/17 08:20:09;;;;;;;97.28;35.38;;;;;;;;;;5025087;28;20412;-76
2022/02/17 08:22:37;;;;;;;95.20;34.67;;;;;;;;;;5025478;28;20741;-81
2022/02/17 08:25:05;;;;;;;90.80;33.40;;;;;;;;;;5043528;28;20407;-81
2022/02/17 08:27:34;;;;;;;95.00;33.92;;;;;;;;;;5045028;28;20396;-81
2022/02/17 08:30:00;;;;;;;90.25;34.67;;;;;;;;;;5044984;28;20461;-81
2022/02/17 08:32:27;;;;;;;93.97;34.65;;;;;;;;;;5043708;28;20638;-81
2022/02/17 08:34:56;;;;;;;88.50;33.97;;;;;;;;;;5044218;28;20469;-82
2022/02/17 08:37:24;;;;;;;84.53;32.20;;;;;;;;;;5044900;28;20408;-81
2022/02/17 08:39:51;;;;;;;82.65;32.42;;;;;;;;;;5044505;28;20427;-82
2022/02/17 08:42:18;;;;;;;82.10;32.37;;;;;;;;;;5044687;28;20450;-81
2022/02/17 08:44:45;;;;;;;84.20;32.47;;;;;;;;;;5043911;28;20399;-82
2022/02/17 08:47:13;;;;;;;85.68;32.90;;;;;;;;;;5043510;28;20409;-81
2022/02/17 08:49:40;;;;;;;86.78;32.75;;;;;;;;;;5043640;28;20458;-81
2022/02/17 08:52:07;;;;;;;79.93;32.13;;;;;;;;;;5043954;28;20411;-81
2022/02/17 08:54:36;;;;;;;83.35;32.97;;;;;;;;;;5044207;28;20932;-81
2022/02/17 08:57:03;;;;;;;81.93;32.55;;;;;;;;;;5043767;28;20414;-82
2022/02/17 08:59:30;;;;;;;86.97;33.10;;;;;;;;;;5043732;28;20403;-81
2022/02/17 09:01:57;;;;;;;90.07;33.93;;;;;;;;;;5035141;28;20821;-81
2022/02/17 09:04:24;;;;;;;87.90;33.47;;;;;;;;;;5036397;28;20471;-82
2022/02/17 09:06:51;;;;;;;84.33;33.50;;;;;;;;;;5044045;28;20418;-81
2022/02/17 09:09:18;;;;;;;87.38;35.28;;;;;;;;;;5040322;28;20399;-81
2022/02/17 09:11:46;;;;;;;87.70;34.78;;;;;;;;;;5025803;28;20402;-81
2022/02/17 09:14:13;;;;;;;91.00;35.03;;;;;;;;;;5025057;28;20410;-82
2022/02/17 09:16:40;;;;;;;96.47;36.05;;;;;;;;;;5025456;28;20409;-82
2022/02/17 09:19:06;;;;;;;94.05;36.65;;;;;;;;;;5037900;28;20932;-82
2022/02/17 09:21:33;;;;;;;93.22;34.50;;;;;;;;;;5043025;28;20465;-81
2022/02/17 09:24:00;;;;;;;92.13;34.85;;;;;;;;;;5035552;28;21162;-82
2022/02/17 09:26:29;;;;;;;89.07;35.77;;;;;;;;;;5039216;28;20746;-82
2022/02/17 09:28:57;;;;;;;91.93;35.92;;;;;;;;;;5035599;28;20738;-82
2022/02/17 09:31:24;;;;;;;91.57;34.67;;;;;;;;;;5025778;28;20627;-82
2022/02/17 09:33:53;;;;;;;95.07;37.15;;;;;;;;;;5042285;28;20415;-82
2022/02/17 09:36:21;;;;;;;94.05;36.95;;;;;;;;;;5039963;28;20476;-82
2022/02/17 09:38:48;;;;;;;90.43;36.80;;;;;;;;;;5029145;28;20420;-81
2022/02/17 09:41:17;;;;;;;92.35;36.72;;;;;;;;;;5031815;28;20404;-82
2022/02/17 09:43:46;;;;;;;86.93;35.47;;;;;;;;;;5040911;28;20427;-82
2022/02/17 09:46:20;;;;;;;91.50;36.80;;;;;;;;;;5041063;28;20770;-82
2022/02/17 09:48:50;;;;;;;88.50;35.95;;;;;;;;;;5029656;28;20555;-82
2022/02/17 09:51:17;;;;;;;83.05;35.95;;;;;;;;;;5041975;28;20817;-82
2022/02/17 09:53:45;;;;;;;89.85;37.35;;;;;;;;;;5041119;28;21077;-82
2022/02/17 09:56:12;;;;;;;88.22;36.72;;;;;;;;;;5041142;28;20963;-82
2022/02/17 09:58:38;;;;;;;92.07;36.53;;;;;;;;;;5036109;28;20799;-82
2022/02/17 10:01:05;;;;;;;78.15;34.03;;;;;;;;;;5026399;28;20486;-82
2022/02/17 10:03:36;;;;;;;82.87;35.50;;;;;;;;;;5025774;28;20514;-82
2022/02/17 10:06:08;;;;;;;82.88;35.53;;;;;;;;;;5025913;28;20409;-82
2022/02/17 10:08:36;;;;;;;84.18;35.90;;;;;;;;;;5026524;28;20483;-82
2022/02/17 10:11:03;;;;;;;83.50;34.05;;;;;;;;;;5025508;28;20398;-82
2022/02/17 10:13:30;;;;;;;84.28;35.05;;;;;;;;;;5025895;28;20467;-82
2022/02/17 10:15:58;;;;;;;81.75;35.15;;;;;;;;;;5026708;28;20821;-82
2022/02/17 10:18:27;;;;;;;80.25;35.83;;;;;;;;;;5026595;28;20499;-82
2022/02/17 10:20:59;;;;;;;80.72;35.35;;;;;;;;;;5039085;28;20407;-82
2022/02/17 10:23:27;;;;;;;79.35;34.67;;;;;;;;;;5037638;28;20422;-82
2022/02/17 10:25:58;;;;;;;79.72;35.33;;;;;;;;;;5037025;28;20411;-82
2022/02/17 10:28:26;;;;;;;80.68;34.85;;;;;;;;;;5038475;28;20469;-82
2022/02/17 10:30:53;;;;;;;84.63;35.43;;;;;;;;;;5038196;28;20805;-82
2022/02/17 10:33:20;;;;;;;77.23;35.30;;;;;;;;;;5032316;28;20413;-82
2022/02/17 10:35:53;;;;;;;75.50;34.65;;;;;;;;;;5029213;28;20786;-81
2022/02/17 10:38:22;;;;;;;74.45;34.08;;;;;;;;;;5029498;28;20892;-82
2022/02/17 10:40:54;;;;;;;78.50;36.25;;;;;;;;;;5039026;28;20871;-82
2022/02/17 10:43:21;;;;;;;80.82;36.67;;;;;;;;;;5028453;28;20807;-82
2022/02/17 10:45:50;;;;;;;71.70;35.10;;;;;;;;;;5028893;28;20413;-83
2022/02/17 10:48:19;;;;;;;74.25;34.80;;;;;;;;;;5029496;28;20405;-82
2022/02/17 10:50:48;;;;;;;71.50;33.55;;;;;;;;;;5026365;28;20768;-82
2022/02/17 10:53:19;;;;;;;71.80;34.58;;;;;;;;;;5027530;28;20414;-82
2022/02/17 10:55:55;;;;;;;74.50;34.60;;;;;;;;;;5010940;28;20469;-82
2022/02/17 10:58:27;;;;;;;70.25;34.35;;;;;;;;;;5041903;28;25103;-82
2022/02/17 11:00:55;;;;;;;70.15;33.83;;;;;;;;;;5039486;28;20521;-82
2022/02/17 11:03:22;;;;;;;70.57;34.20;;;;;;;;;;5036288;28;20452;-82
2022/02/17 11:05:50;;;;;;;71.15;34.17;;;;;;;;;;5039412;28;20525;-82
2022/02/17 11:08:17;;;;;;;67.63;32.95;;;;;;;;;;5030079;28;20413;-83
2022/02/17 11:10:44;;;;;;;68.63;33.30;;;;;;;;;;5026995;28;20449;-82
2022/02/17 11:13:18;;;;;;;70.68;34.65;;;;;;;;;;5027353;28;20402;-82
2022/02/17 11:15:45;;;;;;;66.82;34.28;;;;;;;;;;5027624;28;20407;-82
2022/02/17 11:18:12;;;;;;;64.97;33.58;;;;;;;;;;5027443;28;20414;-82
2022/02/17 11:20:40;;;;;;;70.18;35.22;;;;;;;;;;5027153;28;20413;-82
2022/02/17 11:23:06;;;;;;;67.00;33.83;;;;;;;;;;5028124;28;20895;-82
2022/02/17 11:25:35;;;;;;;66.80;32.88;;;;;;;;;;5031688;28;20404;-82
2022/02/17 11:28:04;;;;;;;64.87;33.53;;;;;;;;;;5031749;28;20420;-82
2022/02/17 11:30:34;;;;;;;67.68;33.47;;;;;;;;;;5031871;28;20421;-82
2022/02/17 11:33:21;;;;;;;64.10;34.13;;;;;;;;;;5036594;28;21066;-82
2022/02/17 11:35:49;;;;;;;64.55;33.90;;;;;;;;;;5033841;28;25121;-82
2022/02/17 11:38:30;;;;;;;66.05;33.15;;;;;;;;;;5031209;28;20393;-82
2022/02/17 11:41:10;;;;;;;66.22;34.70;;;;;;;;;;5039622;28;20524;-82
2022/02/17 11:43:38;;;;;;;67.57;36.85;;;;;;;;;;5042317;28;25122;-82
2022/02/17 11:46:09;;;;;;;89.70;51.70;;;;;;;;;;5042209;28;20403;-83
2022/02/17 11:48:40;;;;;;;71.82;36.85;;;;;;;;;;5041086;28;20923;-82
2022/02/17 11:51:16;;;;;;;66.22;34.60;;;;;;;;;;5039953;28;20469;-82
2022/02/17 11:53:44;;;;;;;64.65;33.55;;;;;;;;;;5041222;28;25156;-82
2022/02/17 11:56:35;;;;;;;63.00;33.58;;;;;;;;;;5040763;28;20745;-82
2022/02/17 11:59:17;;;;;;;83.13;54.40;;;;;;;;;;5040967;28;25146;-82
2022/02/17 12:01:46;;;;;;;65.15;35.33;;;;;;;;;;5041492;28;25125;-82
2022/02/17 12:04:18;;;;;;;58.35;34.05;;;;;;;;;;5041343;28;20853;-82
2022/02/17 12:06:47;;;;;;;58.00;33.85;;;;;;;;;;5042348;28;20401;-82
2022/02/17 12:09:38;;;;;;;61.78;33.92;;;;;;;;;;5039275;28;21150;-83
2022/02/17 12:12:37;;;;;;;60.92;35.25;;;;;;;;;;5040432;28;20482;-83
2022/02/17 12:15:06;;;;;;;61.80;35.05;;;;;;;;;;5042791;28;25145;-82
2022/02/17 12:17:37;;;;;;;62.33;34.67;;;;;;;;;;5039915;28;20415;-82
2022/02/17 12:20:05;;;;;;;57.65;34.20;;;;;;;;;;5036885;28;20409;-82
2022/02/17 12:22:32;;;;;;;58.55;33.30;;;;;;;;;;5039017;28;20433;-82
2022/02/17 12:25:13;;;;;;;60.40;34.63;;;;;;;;;;5041763;28;20738;-83
2022/02/17 12:27:40;;;;;;;59.00;33.42;;;;;;;;;;5042417;28;20953;-82
2022/02/17 12:30:08;;;;;;;59.20;33.30;;;;;;;;;;5037472;28;20485;-82
2022/02/17 12:32:36;;;;;;;60.08;34.45;;;;;;;;;;5041097;28;20951;-82
2022/02/17 12:35:03;;;;;;;57.10;33.75;;;;;;;;;;5025534;28;20420;-83
2022/02/17 12:37:30;;;;;;;57.35;33.22;;;;;;;;;;5038799;28;20913;-82
2022/02/17 12:39:57;;;;;;;57.78;32.70;;;;;;;;;;5041908;28;20485;-82
2022/02/17 12:42:25;;;;;;;51.58;31.23;;;;;;;;;;5026302;28;21001;-82
2022/02/17 12:44:52;;;;;;;54.88;32.22;;;;;;;;;;5043167;28;20437;-82
2022/02/17 12:47:19;;;;;;;54.40;32.20;;;;;;;;;;5044117;28;20448;-82
2022/02/17 12:49:47;;;;;;;55.13;32.72;;;;;;;;;;5039177;28;20465;-82
2022/02/17 12:52:17;;;;;;;56.40;32.92;;;;;;;;;;5034942;28;20436;-82
2022/02/17 12:54:53;;;;;;;59.50;34.80;;;;;;;;;;5033119;28;20474;-82
2022/02/17 12:57:20;;;;;;;56.28;33.63;;;;;;;;;;5030395;28;25111;-82
2022/02/17 12:59:56;;;;;;;56.47;33.75;;;;;;;;;;5032332;28;20422;-81
2022/02/17 13:02:23;;;;;;;58.17;34.15;;;;;;;;;;5035480;28;20806;-82
2022/02/17 13:04:51;;;;;;;60.75;35.15;;;;;;;;;;5032030;28;20421;-83
2022/02/17 13:07:23;;;;;;;58.20;34.45;;;;;;;;;;5032136;28;20426;-82
2022/02/17 13:09:54;;;;;;;61.13;36.33;;;;;;;;;;5031917;28;20431;-82
2022/02/17 13:12:21;;;;;;;61.15;36.20;;;;;;;;;;5040966;28;20404;-82
2022/02/17 13:14:50;;;;;;;58.67;34.45;;;;;;;;;;5040305;28;20403;-82
2022/02/17 13:17:23;;;;;;;72.03;43.33;;;;;;;;;;5040483;28;20436;-82
2022/02/17 13:19:53;;;;;;;59.70;36.20;;;;;;;;;;5040188;28;25150;-82
2022/02/17 13:22:22;;;;;;;60.20;35.72;;;;;;;;;;5041140;28;20802;-82
2022/02/17 13:24:56;;;;;;;61.57;36.23;;;;;;;;;;5040333;28;20856;-82
2022/02/17 13:27:23;;;;;;;59.92;35.03;;;;;;;;;;5040063;28;25148;-82
2022/02/17 13:29:51;;;;;;;65.05;36.10;;;;;;;;;;5036463;28;20398;-82
2022/02/17 13:32:18;;;;;;;63.88;34.83;;;;;;;;;;5031327;28;20915;-82
2022/02/17 13:34:45;;;;;;;63.63;35.00;;;;;;;;;;5031477;28;20428;-82
2022/02/17 13:37:13;;;;;;;66.35;36.38;;;;;;;;;;5036880;28;20419;-82
2022/02/17 13:39:41;;;;;;;64.97;34.70;;;;;;;;;;5033616;28;20544;-82
2022/02/17 13:42:11;;;;;;;69.47;35.58;;;;;;;;;;5038012;28;20396;-81
2022/02/17 13:44:40;;;;;;;66.03;35.90;;;;;;;;;;5037758;28;20447;-81
2022/02/17 13:47:08;;;;;;;63.80;35.13;;;;;;;;;;5037767;28;20403;-82
2022/02/17 13:49:36;;;;;;;64.20;34.33;;;;;;;;;;5034682;28;20572;-81
2022/02/17 13:52:04;;;;;;;68.00;35.55;;;;;;;;;;5039652;28;20474;-82
2022/02/17 13:54:52;;;;;;;66.85;35.20;;;;;;;;;;5033162;28;20430;-81
2022/02/17 13:57:19;;;;;;;64.47;34.95;;;;;;;;;;5033226;28;25217;-82
2022/02/17 13:59:46;;;;;;;65.03;34.97;;;;;;;;;;5037204;28;20412;-81
2022/02/17 14:02:25;;;;;;;65.55;34.35;;;;;;;;;;5038884;28;20400;-80
2022/02/17 14:04:57;;;;;;;67.07;36.08;;;;;;;;;;5040111;28;25208;-82
2022/02/17 14:07:24;;;;;;;62.38;33.75;;;;;;;;;;5036678;28;20446;-81
2022/02/17 14:09:52;;;;;;;60.67;34.60;;;;;;;;;;5040569;28;20461;-81
2022/02/17 14:12:20;;;;;;;64.93;34.92;;;;;;;;;;5037501;28;20514;-82
2022/02/17 14:14:46;;;;;;;60.90;34.47;;;;;;;;;;5040181;28;20396;-82
2022/02/17 14:17:17;;;;;;;64.97;34.78;;;;;;;;;;5040267;28;20414;-82
2022/02/17 14:19:44;;;;;;;58.47;33.42;;;;;;;;;;5038340;28;20522;-81
2022/02/17 14:22:10;;;;;;;62.33;33.67;;;;;;;;;;5037586;28;20954;-81